createdAt,value
2023-02-25T00:01:37.040Z,0.61
2023-02-25T00:04:04.035Z,0.69
2023-02-25T00:06:30.801Z,0.75
2023-02-25T00:08:58.051Z,0.78
2023-02-25T00:11:25.997Z,0.57
2023-02-25T00:13:53.077Z,0.62
2023-02-25T00:16:22.365Z,0.68
2023-02-25T00:18:56.940Z,0.81
2023-02-25T00:21:24.579Z,0.57
2023-02-25T00:23:53.727Z,0.79
2023-02-25T00:26:22.038Z,0.85
2023-02-25T00:28:49.668Z,0.85
2023-02-25T00:31:19.610Z,0.90
2023-02-25T00:33:46.330Z,0.84
2023-02-25T00:36:20.559Z,0.85
2023-02-25T00:38:48.794Z,0.67
2023-02-25T00:41:25.118Z,0.57
2023-02-25T00:43:54.381Z,0.91
2023-02-25T00:46:22.135Z,0.86
2023-02-25T00:48:49.811Z,0.85
2023-02-25T00:51:23.299Z,0.42
2023-02-25T00:53:50.589Z,0.65
2023-02-25T00:56:18.081Z,0.64
2023-02-25T00:58:46.309Z,0.75
2023-02-25T01:01:28.156Z,0.63
2023-02-25T01:03:56.689Z,0.56
2023-02-25T01:06:25.915Z,0.69
2023-02-25T01:08:53.181Z,0.59
2023-02-25T01:11:27.075Z,0.42
2023-02-25T01:13:54.439Z,0.52
2023-02-25T01:16:24.377Z,0.62
2023-02-25T01:19:03.104Z,0.57
2023-02-25T01:21:36.685Z,0.62
2023-02-25T01:24:07.027Z,0.52
2023-02-25T01:26:36.246Z,0.41
2023-02-25T01:29:07.250Z,0.55
2023-02-25T01:31:34.006Z,0.49
2023-02-25T01:34:03.169Z,0.45
2023-02-25T01:36:31.384Z,0.46
2023-02-25T01:38:59.201Z,0.41
2023-02-25T01:41:27.185Z,0.41
2023-02-25T01:44:21.398Z,0.46
2023-02-25T01:46:50.199Z,0.41
2023-02-25T01:49:21.819Z,0.41
2023-02-25T01:51:55.837Z,0.39
2023-02-25T01:54:23.262Z,0.36
2023-02-25T01:56:53.777Z,0.49
2023-02-25T01:59:25.013Z,0.32
2023-02-25T02:01:52.148Z,0.36
2023-02-25T02:04:21.903Z,0.53
2023-02-25T02:06:50.299Z,0.48
2023-02-25T02:09:21.193Z,0.40
2023-02-25T02:11:47.899Z,0.38
2023-02-25T02:14:18.742Z,0.57
2023-02-25T02:17:15.783Z,0.50
2023-02-25T02:19:49.692Z,0.63
2023-02-25T02:22:46.964Z,0.67
2023-02-25T02:25:23.410Z,0.53
2023-02-25T02:28:23.143Z,0.49
2023-02-25T02:30:55.747Z,0.52
2023-02-25T02:33:40.564Z,0.62
2023-02-25T02:36:27.450Z,0.54
2023-02-25T02:39:18.039Z,0.62
2023-02-25T02:42:01.226Z,0.56
2023-02-25T02:44:40.740Z,0.54
2023-02-25T02:47:36.892Z,0.73
2023-02-25T02:50:06.732Z,0.71
2023-02-25T02:52:38.672Z,0.65
2023-02-25T02:55:22.198Z,0.71
2023-02-25T02:57:55.726Z,0.60
2023-02-25T03:00:28.574Z,0.29
2023-02-25T03:03:02.686Z,0.53
2023-02-25T03:05:33.263Z,0.29
2023-02-25T03:08:20.739Z,0.55
2023-02-25T03:10:47.891Z,0.73
2023-02-25T03:13:15.757Z,0.47
2023-02-25T03:15:43.893Z,0.75
2023-02-25T03:18:34.939Z,0.79
2023-02-25T03:21:12.912Z,0.50
2023-02-25T03:23:42.907Z,0.62
2023-02-25T03:26:23.508Z,0.76
2023-02-25T03:28:54.638Z,0.70
2023-02-25T03:31:34.974Z,0.72
2023-02-25T03:34:19.095Z,0.58
2023-02-25T03:36:57.023Z,0.09
2023-02-25T03:39:33.589Z,0.68
2023-02-25T03:42:03.770Z,0.65
2023-02-25T03:44:36.352Z,0.52
2023-02-25T03:47:05.652Z,0.63
2023-02-25T03:49:50.650Z,0.62
2023-02-25T03:52:22.194Z,0.32
2023-02-25T03:54:53.446Z,0.49
2023-02-25T03:57:24.993Z,0.54
2023-02-25T03:59:56.472Z,0.54
2023-02-25T04:02:33.653Z,0.49
2023-02-25T04:05:00.561Z,0.26
2023-02-25T04:07:27.683Z,0.41
2023-02-25T04:09:54.303Z,0.39
2023-02-25T04:12:21.016Z,0.45
2023-02-25T04:14:47.676Z,0.20
2023-02-25T04:17:14.322Z,0.34
2023-02-25T04:19:40.932Z,0.25
2023-02-25T04:22:08.298Z,0.34
2023-02-25T04:24:35.034Z,0.19
2023-02-25T04:27:02.687Z,0.39
2023-02-25T04:29:29.704Z,0.13
2023-02-25T04:31:57.298Z,0.19
2023-02-25T04:34:24.621Z,0.42
2023-02-25T04:36:51.849Z,0.42
2023-02-25T04:39:19.166Z,0.41
2023-02-25T04:41:46.113Z,0.34
2023-02-25T04:44:12.850Z,0.37
2023-02-25T04:46:41.667Z,0.42
2023-02-25T04:49:09.763Z,-0.02
2023-02-25T04:51:38.647Z,0.48
2023-02-25T04:54:06.165Z,0.36
2023-02-25T04:56:33.116Z,-0.15
2023-02-25T04:58:59.889Z,0.44
2023-02-25T05:01:26.690Z,0.24
2023-02-25T05:03:57.064Z,0.21
2023-02-25T05:06:28.401Z,0.45
2023-02-25T05:08:57.645Z,0.42
2023-02-25T05:11:26.183Z,0.35
2023-02-25T05:13:55.570Z,0.34
2023-02-25T05:16:22.437Z,0.13
2023-02-25T05:18:49.473Z,0.20
2023-02-25T05:21:20.190Z,0.37
2023-02-25T05:23:48.762Z,0.51
2023-02-25T05:26:17.705Z,0.52
2023-02-25T05:28:44.318Z,0.31
2023-02-25T05:31:12.879Z,0.53
2023-02-25T05:33:40.450Z,0.46
2023-02-25T05:36:12.199Z,0.53
2023-02-25T05:38:39.006Z,0.18
2023-02-25T05:41:06.496Z,-0.28
2023-02-25T05:43:33.751Z,0.29
2023-02-25T05:46:04.786Z,0.37
2023-02-25T05:48:32.542Z,0.48
2023-02-25T05:51:02.005Z,0.51
2023-02-25T05:53:28.695Z,0.40
2023-02-25T05:55:55.832Z,0.37
2023-02-25T05:58:23.580Z,0.58
2023-02-25T06:00:50.845Z,0.57
2023-02-25T06:03:17.811Z,0.36
2023-02-25T06:05:46.306Z,0.48
2023-02-25T06:08:14.522Z,0.57
2023-02-25T06:10:41.521Z,0.54
2023-02-25T06:13:09.483Z,0.58
2023-02-25T06:15:40.878Z,0.30
2023-02-25T06:18:08.795Z,0.52
2023-02-25T06:20:35.705Z,0.46
2023-02-25T06:23:03.521Z,0.15
2023-02-25T06:25:30.482Z,0.56
2023-02-25T06:28:00.897Z,0.31
2023-02-25T06:30:28.469Z,0.56
2023-02-25T06:32:55.949Z,0.64
2023-02-25T06:35:23.500Z,0.46
2023-02-25T06:37:57.837Z,0.39
2023-02-25T06:40:24.785Z,0.55
2023-02-25T06:42:51.567Z,0.40
2023-02-25T06:45:18.436Z,0.57
2023-02-25T06:47:45.045Z,0.40
2023-02-25T06:50:14.579Z,0.47
2023-02-25T06:52:41.377Z,0.46
2023-02-25T06:55:08.557Z,0.49
2023-02-25T06:57:36.000Z,0.69
2023-02-25T07:00:05.494Z,0.45
2023-02-25T07:02:32.278Z,0.49
2023-02-25T07:05:00.728Z,0.62
2023-02-25T07:07:27.303Z,0.57
2023-02-25T07:09:54.228Z,0.68
2023-02-25T07:12:21.107Z,0.41
2023-02-25T07:14:47.754Z,0.40
2023-02-25T07:17:14.382Z,0.53
2023-02-25T07:19:40.964Z,0.65
2023-02-25T07:22:09.930Z,0.71
2023-02-25T07:24:36.645Z,0.43
2023-02-25T07:27:03.332Z,0.64
2023-02-25T07:29:29.922Z,0.80
2023-02-25T07:31:56.850Z,1.02
2023-02-25T07:34:23.947Z,1.03
2023-02-25T07:36:50.533Z,0.89
2023-02-25T07:39:17.540Z,1.27
2023-02-25T07:41:44.376Z,1.17
2023-02-25T07:44:11.900Z,1.29
2023-02-25T07:46:39.314Z,1.24
2023-02-25T07:49:05.885Z,1.02
2023-02-25T07:51:32.925Z,0.96
2023-02-25T07:54:00.528Z,0.87
2023-02-25T07:56:28.774Z,1.10
2023-02-25T07:58:55.595Z,0.80
2023-02-25T08:01:34.720Z,1.03
2023-02-25T08:04:04.374Z,1.21
2023-02-25T08:06:31.441Z,0.99
2023-02-25T08:08:58.058Z,0.88
2023-02-25T08:11:26.213Z,0.91
2023-02-25T08:13:53.727Z,0.82
2023-02-25T08:16:21.569Z,1.21
2023-02-25T08:18:48.542Z,0.94
2023-02-25T08:21:18.301Z,1.04
2023-02-25T08:23:45.182Z,1.18
2023-02-25T08:26:11.841Z,1.04
2023-02-25T08:28:39.636Z,1.26
2023-02-25T08:31:08.385Z,1.15
2023-02-25T08:33:35.300Z,1.26
2023-02-25T08:36:20.816Z,1.22
2023-02-25T08:38:47.584Z,1.27
2023-02-25T08:41:14.348Z,1.48
2023-02-25T08:43:41.203Z,1.53
2023-02-25T08:46:08.768Z,1.33
2023-02-25T08:48:36.369Z,1.42
2023-02-25T08:51:08.324Z,1.42
2023-02-25T08:53:37.135Z,1.29
2023-02-25T08:56:04.150Z,1.51
2023-02-25T08:58:31.200Z,1.31
2023-02-25T09:00:58.380Z,1.53
2023-02-25T09:03:25.180Z,1.78
2023-02-25T09:05:53.530Z,1.91
2023-02-25T09:08:20.465Z,1.56
2023-02-25T09:10:50.593Z,2.19
2023-02-25T09:13:17.831Z,2.00
2023-02-25T09:15:44.624Z,1.95
2023-02-25T09:18:12.115Z,1.99
2023-02-25T09:20:38.931Z,2.07
2023-02-25T09:23:05.665Z,1.80
2023-02-25T09:25:32.291Z,1.85
2023-02-25T09:27:58.892Z,2.07
2023-02-25T09:30:26.485Z,2.15
2023-02-25T09:32:53.277Z,2.02
2023-02-25T09:35:20.117Z,1.98
2023-02-25T09:37:46.782Z,1.72
2023-02-25T09:40:17.921Z,1.48
2023-02-25T09:42:57.636Z,1.82
2023-02-25T09:45:26.310Z,1.56
2023-02-25T09:48:00.707Z,1.77
2023-02-25T09:50:36.017Z,2.03
2023-02-25T09:53:15.809Z,2.09
2023-02-25T09:55:47.787Z,2.14
2023-02-25T09:58:18.251Z,1.86
2023-02-25T10:01:05.244Z,2.43
2023-02-25T10:03:51.200Z,2.55
2023-02-25T10:06:22.790Z,2.22
2023-02-25T10:08:58.826Z,2.67
2023-02-25T10:12:09.882Z,2.81
2023-02-25T10:14:54.677Z,2.72
2023-02-25T10:17:55.254Z,2.41
2023-02-25T10:20:29.691Z,2.29
2023-02-25T10:23:14.514Z,2.05
2023-02-25T10:26:14.998Z,2.00
2023-02-25T10:28:43.693Z,2.04
2023-02-25T10:31:20.013Z,2.14
2023-02-25T10:33:49.561Z,2.16
2023-02-25T10:36:19.914Z,2.32
2023-02-25T10:38:50.437Z,2.42
2023-02-25T10:41:18.176Z,2.35
2023-02-25T10:43:45.633Z,2.37
2023-02-25T10:46:42.441Z,2.63
2023-02-25T10:49:20.986Z,2.69
2023-02-25T10:51:56.965Z,2.74
2023-02-25T10:54:27.625Z,2.71
2023-02-25T10:56:55.117Z,3.03
2023-02-25T10:59:39.368Z,3.11
2023-02-25T11:02:25.772Z,2.44
2023-02-25T11:04:54.839Z,2.76
2023-02-25T11:07:39.940Z,3.09
2023-02-25T11:10:20.605Z,3.07
2023-02-25T11:12:47.290Z,3.25
2023-02-25T11:15:45.379Z,3.36
2023-02-25T11:18:31.215Z,3.41
2023-02-25T11:21:07.184Z,3.65
2023-02-25T11:23:39.730Z,3.82
2023-02-25T11:26:07.223Z,3.89
2023-02-25T11:28:55.361Z,3.51
2023-02-25T11:31:25.584Z,3.03
2023-02-25T11:34:03.392Z,2.45
2023-02-25T11:36:36.328Z,2.55
2023-02-25T11:39:17.904Z,2.29
2023-02-25T11:41:46.470Z,1.68
2023-02-25T11:44:26.914Z,1.58
2023-02-25T11:47:18.401Z,1.37
2023-02-25T11:50:05.086Z,1.17
2023-02-25T11:52:44.732Z,0.97
2023-02-25T11:55:22.336Z,0.78
2023-02-25T11:58:05.440Z,0.79
2023-02-25T12:01:01.017Z,1.17
2023-02-25T12:03:51.605Z,0.83
2023-02-25T12:06:53.048Z,0.76
2023-02-25T12:09:41.530Z,0.51
2023-02-25T12:12:14.355Z,0.73
2023-02-25T12:15:06.732Z,0.73
2023-02-25T12:17:52.104Z,0.61
2023-02-25T12:20:45.341Z,0.44
2023-02-25T12:23:33.752Z,0.03
2023-02-25T12:26:21.764Z,0.08
2023-02-25T12:29:03.522Z,0.17
2023-02-25T12:31:45.935Z,-0.25
2023-02-25T12:34:31.293Z,-0.32
2023-02-25T12:37:21.513Z,-0.98
2023-02-25T12:40:11.281Z,-0.57
2023-02-25T12:42:50.507Z,-0.73
2023-02-25T12:45:44.992Z,-0.49
2023-02-25T12:48:40.398Z,-0.43
2023-02-25T12:51:25.778Z,-0.80
2023-02-25T12:54:07.828Z,-0.80
2023-02-25T12:56:57.204Z,-0.78
2023-02-25T12:59:55.769Z,-0.89
2023-02-25T13:02:47.242Z,-0.88
2023-02-25T13:05:38.063Z,-0.95
2023-02-25T13:08:32.593Z,-0.88
2023-02-25T13:11:21.537Z,-0.82
2023-02-25T13:14:09.624Z,-0.75
2023-02-25T13:16:42.145Z,-0.61
2023-02-25T13:19:23.931Z,-0.36
2023-02-25T13:21:55.239Z,-0.35
2023-02-25T13:24:27.720Z,-0.14
2023-02-25T13:27:23.038Z,-0.15
2023-02-25T13:30:14.545Z,-0.17
2023-02-25T13:33:16.505Z,0.03
2023-02-25T13:36:12.413Z,0.63
2023-02-25T13:39:18.079Z,0.63
2023-02-25T13:41:53.810Z,2.56
2023-02-25T13:44:46.845Z,2.88
2023-02-25T13:47:13.429Z,2.14
2023-02-25T13:50:17.835Z,1.71
2023-02-25T13:53:07.509Z,1.71
2023-02-25T13:55:54.471Z,1.43
2023-02-25T13:59:22.382Z,1.74
2023-02-25T14:02:20.799Z,1.77
2023-02-25T14:05:24.774Z,1.44
2023-02-25T14:07:51.387Z,1.14
2023-02-25T14:10:47.624Z,0.88
2023-02-25T14:13:24.549Z,0.37
2023-02-25T14:16:28.866Z,0.55
2023-02-25T14:19:36.692Z,0.62
2023-02-25T14:22:12.115Z,0.48
2023-02-25T14:25:02.754Z,0.38
2023-02-25T14:27:37.691Z,0.48
2023-02-25T14:30:25.822Z,0.03
2023-02-25T14:33:28.249Z,0.04
2023-02-25T14:36:20.421Z,-0.53
2023-02-25T14:39:27.555Z,-0.20
2023-02-25T14:42:14.424Z,-0.21
2023-02-25T14:44:45.053Z,-0.13
2023-02-25T14:47:20.750Z,-0.04
2023-02-25T14:50:11.070Z,1.73
2023-02-25T14:52:56.397Z,2.21
2023-02-25T14:55:46.243Z,3.25
2023-02-25T14:58:21.977Z,2.68
2023-02-25T15:01:00.971Z,2.57
2023-02-25T15:03:46.423Z,2.79
2023-02-25T15:06:40.620Z,2.75
2023-02-25T15:09:25.996Z,3.92
2023-02-25T15:11:55.655Z,4.13
2023-02-25T15:14:22.262Z,4.10
2023-02-25T15:16:57.866Z,2.96
2023-02-25T15:19:24.482Z,2.60
2023-02-25T15:22:11.374Z,3.64
2023-02-25T15:24:42.417Z,3.28
2023-02-25T15:27:31.050Z,3.89
2023-02-25T15:29:59.788Z,3.93
2023-02-25T15:32:45.349Z,2.14
2023-02-25T15:35:15.654Z,1.72
2023-02-25T15:37:51.357Z,1.71
2023-02-25T15:40:18.974Z,1.71
2023-02-25T15:42:48.662Z,1.72
2023-02-25T15:45:27.541Z,1.64
2023-02-25T15:48:09.594Z,1.71
2023-02-25T15:50:42.349Z,1.63
2023-02-25T15:53:20.821Z,1.58
2023-02-25T15:55:49.127Z,1.40
2023-02-25T15:58:24.760Z,1.26
2023-02-25T16:01:01.645Z,1.25
2023-02-25T16:03:40.337Z,1.19
2023-02-25T16:06:32.209Z,0.81
2023-02-25T16:09:06.815Z,1.08
2023-02-25T16:11:46.190Z,0.91
2023-02-25T16:14:34.737Z,0.50
2023-02-25T16:17:14.082Z,0.38
2023-02-25T16:19:42.136Z,0.33
2023-02-25T16:22:24.537Z,0.26
2023-02-25T16:24:54.282Z,0.37
2023-02-25T16:27:52.882Z,0.35
2023-02-25T16:30:30.690Z,0.29
2023-02-25T16:33:08.709Z,0.21
2023-02-25T16:35:47.606Z,0.12
2023-02-25T16:38:46.865Z,-0.04
2023-02-25T16:41:14.948Z,-0.30
2023-02-25T16:43:45.852Z,-0.64
2023-02-25T16:46:27.676Z,-0.91
2023-02-25T16:49:00.451Z,-0.98
2023-02-25T16:51:34.389Z,-1.05
2023-02-25T16:54:15.913Z,-1.01
2023-02-25T16:56:44.323Z,-1.07
2023-02-25T16:59:13.892Z,-0.98
2023-02-25T17:01:48.958Z,-1.05
2023-02-25T17:04:19.884Z,-1.02
2023-02-25T17:07:05.352Z,-0.93
2023-02-25T17:09:31.940Z,-0.96
2023-02-25T17:11:58.898Z,-1.03
2023-02-25T17:14:25.822Z,-0.92
2023-02-25T17:16:53.108Z,-1.20
2023-02-25T17:19:20.538Z,-1.10
2023-02-25T17:21:54.027Z,-1.01
2023-02-25T17:24:28.685Z,-1.33
2023-02-25T17:26:55.924Z,-1.26
2023-02-25T17:29:34.804Z,-1.13
2023-02-25T17:32:20.216Z,-1.30
2023-02-25T17:34:49.284Z,-1.38
2023-02-25T17:37:17.579Z,-1.16
2023-02-25T17:39:45.206Z,-1.34
2023-02-25T17:42:29.994Z,-1.10
2023-02-25T17:44:57.957Z,-1.12
2023-02-25T17:47:31.024Z,-1.24
2023-02-25T17:49:59.851Z,-1.21
2023-02-25T17:52:30.400Z,-1.25
2023-02-25T17:55:05.234Z,-1.33
2023-02-25T17:57:33.593Z,-1.36
2023-02-25T18:00:14.064Z,-1.41
2023-02-25T18:02:44.335Z,-1.20
2023-02-25T18:05:13.955Z,-1.18
2023-02-25T18:07:42.847Z,-1.21
2023-02-25T18:10:30.851Z,-1.27
2023-02-25T18:12:59.539Z,-1.34
2023-02-25T18:15:33.932Z,-1.37
2023-02-25T18:18:10.004Z,-1.23
2023-02-25T18:20:40.998Z,-1.11
2023-02-25T18:23:07.557Z,-1.35
2023-02-25T18:25:40.242Z,-1.12
2023-02-25T18:28:13.548Z,-1.49
2023-02-25T18:30:40.253Z,-1.15
2023-02-25T18:33:08.555Z,-1.18
2023-02-25T18:35:35.199Z,-1.21
2023-02-25T18:38:02.733Z,-1.03
2023-02-25T18:40:35.792Z,-1.05
2023-02-25T18:43:03.852Z,-1.17
2023-02-25T18:45:32.804Z,-0.92
2023-02-25T18:48:00.795Z,-1.22
2023-02-25T18:50:32.426Z,-1.32
2023-02-25T18:52:59.987Z,-1.24
2023-02-25T18:55:32.129Z,-1.34
2023-02-25T18:57:58.952Z,-1.33
2023-02-25T19:00:29.922Z,-1.15
2023-02-25T19:02:57.912Z,-1.33
2023-02-25T19:05:25.898Z,-1.59
2023-02-25T19:07:52.990Z,-1.54
2023-02-25T19:10:26.185Z,-1.33
2023-02-25T19:13:03.052Z,-1.39
2023-02-25T19:15:30.303Z,-1.60
2023-02-25T19:17:56.983Z,-1.63
2023-02-25T19:20:23.772Z,-1.33
2023-02-25T19:22:52.715Z,-1.67
2023-02-25T19:25:22.203Z,-1.49
2023-02-25T19:27:50.012Z,-1.50
2023-02-25T19:30:20.090Z,-1.52
2023-02-25T19:32:46.773Z,-1.75
2023-02-25T19:35:13.456Z,-1.76
2023-02-25T19:37:41.396Z,-1.55
2023-02-25T19:40:15.481Z,-1.68
2023-02-25T19:42:44.525Z,-1.59
2023-02-25T19:45:14.434Z,-1.55
2023-02-25T19:47:41.634Z,-1.61
2023-02-25T19:50:09.428Z,-1.84
2023-02-25T19:52:36.390Z,-1.72
2023-02-25T19:55:04.906Z,-1.66
2023-02-25T19:57:32.198Z,-1.75
2023-02-25T19:59:59.268Z,-1.92
2023-02-25T20:02:26.126Z,-1.84
2023-02-25T20:04:52.836Z,-1.87
2023-02-25T20:07:19.483Z,-1.96
2023-02-25T20:09:46.085Z,-1.91
2023-02-25T20:12:12.690Z,-1.85
2023-02-25T20:14:39.475Z,-1.73
2023-02-25T20:17:09.522Z,-1.76
2023-02-25T20:19:36.576Z,-1.69
2023-02-25T20:22:05.968Z,-1.92
2023-02-25T20:24:33.739Z,-1.89
2023-02-25T20:27:00.943Z,-2.40
2023-02-25T20:29:28.173Z,-2.30
2023-02-25T20:31:57.328Z,-2.54
2023-02-25T20:34:28.221Z,-2.44
2023-02-25T20:36:58.879Z,-2.68
2023-02-25T20:39:31.497Z,-2.52
2023-02-25T20:41:58.625Z,-2.69
2023-02-25T20:44:25.369Z,-2.50
2023-02-25T20:46:52.359Z,-2.84
2023-02-25T20:49:20.004Z,-2.56
2023-02-25T20:51:47.605Z,-2.46
2023-02-25T20:54:16.331Z,-2.60
2023-02-25T20:56:43.700Z,-2.31
2023-02-25T20:59:12.933Z,-2.29
2023-02-25T21:01:40.156Z,-2.75
2023-02-25T21:04:07.348Z,-2.31
2023-02-25T21:06:35.058Z,-2.31
2023-02-25T21:09:01.914Z,-2.38
2023-02-25T21:11:28.562Z,-2.52
2023-02-25T21:13:55.372Z,-2.60
2023-02-25T21:16:23.669Z,-2.46
2023-02-25T21:18:51.666Z,-2.46
2023-02-25T21:21:21.324Z,-2.49
2023-02-25T21:23:49.279Z,-2.45
2023-02-25T21:26:16.119Z,-2.36
2023-02-25T21:28:43.043Z,-2.56
2023-02-25T21:31:15.258Z,-2.39
2023-02-25T21:33:42.561Z,-2.54
2023-02-25T21:36:10.682Z,-2.56
2023-02-25T21:38:37.572Z,-2.66
2023-02-25T21:41:13.373Z,-2.61
2023-02-25T21:43:41.596Z,-2.64
2023-02-25T21:46:13.620Z,-2.63
2023-02-25T21:48:40.852Z,-2.69
2023-02-25T21:51:15.022Z,-3.00
2023-02-25T21:53:41.674Z,-2.79
2023-02-25T21:56:18.283Z,-2.74
2023-02-25T21:58:45.034Z,-3.14
2023-02-25T22:01:14.315Z,-2.65
2023-02-25T22:03:42.860Z,-2.78
2023-02-25T22:06:09.861Z,-2.80
2023-02-25T22:08:39.315Z,-2.74
2023-02-25T22:11:11.689Z,-2.86
2023-02-25T22:13:38.304Z,-2.90
2023-02-25T22:16:05.217Z,-2.76
2023-02-25T22:18:32.065Z,-2.99
2023-02-25T22:21:15.276Z,-2.82
2023-02-25T22:23:45.710Z,-2.72
2023-02-25T22:26:14.939Z,-2.64
2023-02-25T22:28:42.942Z,-3.05
2023-02-25T22:31:17.461Z,-2.72
2023-02-25T22:33:44.672Z,-2.74
2023-02-25T22:36:12.587Z,-3.06
2023-02-25T22:38:41.171Z,-2.84
2023-02-25T22:41:21.012Z,-3.01
2023-02-25T22:43:48.681Z,-2.82
2023-02-25T22:46:19.780Z,-3.02
2023-02-25T22:48:48.892Z,-2.93
2023-02-25T22:51:34.013Z,-2.85
2023-02-25T22:54:00.823Z,-3.05
2023-02-25T22:56:28.341Z,-2.76
2023-02-25T22:58:55.169Z,-2.91
2023-02-25T23:01:23.239Z,-2.75
2023-02-25T23:03:51.425Z,-2.92
2023-02-25T23:06:22.091Z,-2.88
2023-02-25T23:08:49.635Z,-2.91
2023-02-25T23:11:37.290Z,-2.93
2023-02-25T23:14:04.915Z,-3.16
2023-02-25T23:16:40.570Z,-2.81
2023-02-25T23:19:10.575Z,-2.78
2023-02-25T23:21:38.671Z,-2.87
2023-02-25T23:24:07.602Z,-2.89
2023-02-25T23:26:39.079Z,-2.87
2023-02-25T23:29:08.083Z,-3.14
2023-02-25T23:31:37.194Z,-2.89
2023-02-25T23:34:10.396Z,-3.09
2023-02-25T23:36:38.441Z,-2.86
2023-02-25T23:39:06.366Z,-2.92
2023-02-25T23:41:34.622Z,-3.01
2023-02-25T23:44:02.049Z,-3.00
2023-02-25T23:46:30.489Z,-2.92
2023-02-25T23:48:59.649Z,-3.00
2023-02-25T23:51:27.409Z,-2.98
2023-02-25T23:53:55.975Z,-3.02
2023-02-25T23:56:23.465Z,-3.05
2023-02-25T23:58:51.396Z,-3.02
